Latest Weather Observations for Badgerys Creek

IDN60801

Issued at 4:52 pm EST Thursday 18 July 2019 (issued every 10 minutes, with the page automatically refreshed every 10 minutes)

About weather observations | Map of weather stations | Latest weather observations for NSW | Other Formats
Station Details ID: 067108 Name: BADGERYS CREEK AWS Lat: -33.90 Lon: 150.73 Height: 81.2 m
Data from the previous 72 hours. | See also: Recent months at Badgerys Creek
Date/Time
EST
Temp
°C
App
Temp
°C
Dew
Point
°C
Rel
Hum
%
Delta-T
°C
Wind Press
QNH
hPa
Press
MSL
hPa
Rain since
9am
mm
Dir  Spd
km/h
Gust
km/h
Spd
kts
Gust
kts
18/04:30pm 17.1 10.7 -2.0 27 7.9 WSW 22 32 12 17 1015.5 1015.6 0.0
18/04:00pm 18.2 12.8 -1.1 27 8.2 WSW 17 20 9 11 1015.1 1015.2 0.0
18/03:30pm 19.0 13.2 -1.4 25 8.7 WSW 19 26 10 14 1014.7 1014.8 0.0
18/03:00pm 19.1 11.7 -3.7 21 9.3 WSW 26 37 14 20 1014.4 1014.5 0.0
18/02:30pm 19.3 12.4 -2.9 22 9.2 SW 24 33 13 18 1014.4 1014.5 0.0
18/02:00pm 19.4 14.9 -0.6 26 8.7 SSW 13 24 7 13 1014.3 1014.4 0.0
18/01:30pm 19.1 14.3 0.2 28 8.3 SW 15 30 8 16 1014.2 1014.3 0.0
18/01:00pm 18.8 15.3 1.3 31 7.9 WSW 9 19 5 10 1014.5 1014.6 0.0
18/12:30pm 18.0 14.6 1.9 34 7.3 WSW 9 15 5 8 1014.7 1014.8 0.0
18/12:00pm 18.0 15.8 3.5 38 6.8 ENE 4 7 2 4 1015.2 1015.3 0.0
18/11:30am 17.5 15.9 4.5 42 6.2 W 2 6 1 3 1015.6 1015.7 0.0
18/11:00am 16.8 14.9 4.8 45 5.7 NE 4 7 2 4 1015.8 1015.9 0.0
18/10:30am 15.3 12.3 4.1 47 5.2 ENE 9 13 5 7 1016.1 1016.2 0.0
18/10:00am 14.3 12.0 4.6 52 4.5 NNE 6 9 3 5 1016.0 1016.1 0.0
18/09:30am 13.1 9.5 4.8 57 3.8 N 13 15 7 8 1016.1 1016.2 0.0
18/09:00am 12.6 10.9 3.8 55 4.0 N 2 6 1 3 1016.1 1016.2 0.0
18/08:30am 8.7 6.6 3.9 72 2.1 N 4 6 2 3 1015.7 1015.8 0.0
18/08:00am 5.7 4.0 1.8 76 1.6 CALM 0 0 0 0 1015.7 1015.8 0.0
18/07:30am 4.9 2.3 1.0 76 1.5 NE 4 7 2 4 1015.3 1015.4 0.0
18/07:00am 4.7 2.4 0.7 75 1.5 N 2 6 1 3 1014.8 1014.9 0.0
18/06:30am 5.1 2.0 1.4 77 1.5 N 7 11 4 6 1014.3 1014.4 0.0
18/06:00am 6.2 3.7 1.3 71 2.0 NNE 4 7 2 4 1014.1 1014.2 0.0
18/05:30am 4.7 0.9 -0.5 69 2.0 NW 9 15 5 8 1013.8 1013.9 0.0
18/05:00am 8.0 4.6 2.0 66 2.5 WSW 9 13 5 7 1013.5 1013.6 0.0
18/04:30am 7.3 4.9 2.0 69 2.2 NNE 4 7 2 4 1013.4 1013.5 0.0
18/04:00am 9.7 6.9 3.0 63 2.9 WSW 7 15 4 8 1013.4 1013.5 0.0
18/03:30am 8.4 5.3 1.3 61 2.9 NW 7 9 4 5 1013.3 1013.4 0.0
18/03:00am 11.5 7.1 2.8 55 3.8 W 15 24 8 13 1013.3 1013.4 0.0
18/02:30am 10.3 6.0 3.1 61 3.1 WSW 15 22 8 12 1013.3 1013.4 0.0
18/02:00am 9.8 6.5 2.6 61 3.1 W 9 13 5 7 1013.3 1013.4 0.0
18/01:30am 9.2 6.3 1.6 59 3.2 SW 6 9 3 5 1013.2 1013.3 0.0
18/01:00am 9.8 7.7 1.9 58 3.3 ENE 2 6 1 3 1013.4 1013.5 0.0
18/12:30am 8.4 5.8 0.9 59 3.0 SW 4 6 2 3 1014.0 1014.1 0.0
18/12:00am 11.2 8.2 2.0 53 3.9 S 7 13 4 7 1014.2 1014.3 0.0
 
Date/Time
EST
Temp
°C
App
Temp
°C
Dew
Point
°C
Rel
Hum
%
Delta-T
°C
Wind Press
QNH
hPa
Press
MSL
hPa
Rain since
9am
mm
Dir  Spd
km/h
Gust
km/h
Spd
kts
Gust
kts
17/11:30pm 10.3 6.8 1.2 53 3.8 W 9 15 5 8 1014.1 1014.2 0.0
17/11:00pm 11.7 6.7 1.4 49 4.4 W 17 28 9 15 1014.3 1014.4 0.0
17/10:30pm 12.4 6.8 1.1 46 4.8 W 20 28 11 15 1014.6 1014.7 0.0
17/10:00pm 12.1 6.4 0.8 46 4.7 W 20 28 11 15 1014.8 1014.9 0.0
17/09:30pm 12.5 5.7 0.6 44 5.0 W 26 39 14 21 1014.9 1015.0 0.0
17/09:00pm 12.5 2.9 0.9 45 4.9 W 41 56 22 30 1014.5 1014.6 0.0
17/08:33pm 12.7 5.2 1.1 45 4.9 WSW 30 48 16 26 1015.0 1015.1 0.0
17/08:30pm 12.8 4.3 0.9 44 5.0 WSW 35 50 19 27 1014.9 1015.0 0.0
17/08:09pm 13.0 5.9 1.4 45 5.0 WSW 28 57 15 31 1014.5 1014.6 0.0
17/08:00pm 12.6 6.7 1.6 47 4.7 W 22 32 12 17 1014.5 1014.6 0.0
17/07:30pm 11.6 9.6 2.4 53 4.0 W 2 15 1 8 1014.6 1014.7 0.0
17/07:00pm 12.2 10.2 2.1 50 4.4 W 2 6 1 3 1014.4 1014.5 0.0
17/06:30pm 12.6 9.8 2.2 49 4.5 W 6 13 3 7 1014.0 1014.1 0.0
17/06:00pm 12.4 8.7 2.3 50 4.4 W 11 17 6 9 1013.8 1013.9 0.0
17/05:30pm 13.4 9.6 2.0 46 5.0 WNW 11 17 6 9 1013.7 1013.8 0.0
17/05:00pm 14.9 10.0 1.8 41 5.8 WNW 17 28 9 15 1013.6 1013.7 0.0
17/04:30pm 16.4 10.9 2.1 38 6.4 WNW 20 28 11 15 1013.5 1013.6 0.0
17/04:00pm 17.6 11.9 3.1 38 6.7 WNW 22 30 12 16 1013.1 1013.2 0.0
17/03:30pm 18.6 13.0 3.3 36 7.2 WNW 22 30 12 16 1013.1 1013.2 0.0
17/03:00pm 19.1 14.1 3.7 36 7.3 W 19 32 10 17 1013.5 1013.6 0.0
17/02:30pm 19.0 15.4 5.1 40 6.8 WSW 13 19 7 10 1013.7 1013.8 0.0
17/02:00pm 18.9 15.4 5.4 41 6.6 WSW 13 20 7 11 1014.0 1014.1 0.0
17/01:30pm 18.3 13.9 4.8 41 6.5 WSW 17 22 9 12 1014.4 1014.5 0.0
17/01:00pm 17.9 13.9 4.8 42 6.3 WSW 15 24 8 13 1014.8 1014.9 0.0
17/12:30pm 17.5 13.5 5.1 44 6.0 WSW 15 20 8 11 1015.4 1015.5 0.0
17/12:00pm 17.1 12.3 4.4 43 6.0 W 19 24 10 13 1016.2 1016.3 0.0
17/11:30am 16.8 14.0 5.1 46 5.6 WSW 9 19 5 10 1017.2 1017.3 0.0
17/11:00am 15.6 12.3 4.6 48 5.2 WSW 11 19 6 10 1017.9 1017.9 0.0
17/10:30am 14.6 12.6 4.6 51 4.7 NW 4 9 2 5 1018.4 1018.4 0.0
17/10:00am 14.0 12.7 5.9 58 3.9 N 2 4 1 2 1018.8 1018.8 0.0
17/09:30am 11.6 9.8 5.5 66 2.8 N 4 6 2 3 1019.0 1019.1 0.0
17/09:00am 9.7 7.5 5.5 75 1.9 NNE 6 9 3 5 1019.2 1019.3 0.0
17/08:30am 7.7 5.4 4.7 81 1.3 N 6 7 3 4 1019.2 1019.3 0.0
17/08:00am 5.5 2.4 3.8 89 0.7 N 9 9 5 5 1019.1 1019.2 0.0
17/07:30am 4.0 1.0 2.2 88 0.7 W 7 11 4 6 1019.1 1019.2 0.0
17/07:00am 4.2 2.2 2.2 87 0.8 WSW 2 11 1 6 1019.0 1019.1 0.0
17/06:30am 4.4 1.6 3.1 91 0.5 WSW 7 11 4 6 1018.8 1018.8 0.0
17/06:00am 4.0 2.1 2.7 91 0.5 ENE 2 4 1 2 1018.6 1018.6 0.0
17/05:30am 3.6 1.6 2.3 91 0.5 ENE 2 7 1 4 1018.5 1018.5 0.0
17/05:00am 4.6 2.3 2.9 89 0.7 NNW 4 6 2 3 1018.3 1018.3 0.0
17/04:30am 4.6 3.0 2.6 87 0.8 CALM 0 6 0 3 1018.4 1018.4 0.0
17/04:00am 6.2 5.0 4.4 88 0.8 CALM 0 0 0 0 1018.6 1018.6 0.0
17/03:30am 6.0 3.7 2.5 78 1.4 SW 4 4 2 2 1018.6 1018.6 0.0
17/03:00am 8.7 7.3 3.7 71 2.2 CALM 0 0 0 0 1018.8 1018.8 0.0
17/02:30am 7.9 5.8 3.9 76 1.7 SW 4 6 2 3 1019.1 1019.2 0.0
17/02:00am 8.1 5.5 3.0 70 2.2 SSW 6 7 3 4 1019.1 1019.2 0.0
17/01:30am 9.8 8.5 4.2 68 2.5 CALM 0 4 0 2 1019.2 1019.3 0.0
17/01:00am 10.4 7.4 4.3 66 2.7 WSW 9 17 5 9 1019.2 1019.3 0.0
17/12:30am 10.6 8.0 4.1 64 2.9 SW 7 11 4 6 1019.5 1019.6 0.0
17/12:00am 10.7 7.3 4.0 63 3.0 WSW 11 13 6 7 1019.7 1019.8 0.0
 
Date/Time
EST
Temp
°C
App
Temp
°C
Dew
Point
°C
Rel
Hum
%
Delta-T
°C
Wind Press
QNH
hPa
Press
MSL
hPa
Rain since
9am
mm
Dir  Spd
km/h
Gust
km/h
Spd
kts
Gust
kts
16/11:30pm 11.1 9.0 3.9 61 3.2 WNW 4 6 2 3 1019.8 1019.9 0.0
16/11:00pm 11.7 10.0 4.2 60 3.4 W 2 7 1 4 1019.8 1019.9 0.0
16/10:30pm 12.0 9.6 4.2 59 3.5 WNW 6 11 3 6 1019.8 1019.9 0.0
16/10:00pm 11.2 7.4 4.0 61 3.2 WSW 13 20 7 11 1019.8 1019.9 0.0
16/09:30pm 11.8 9.3 3.6 57 3.7 WSW 6 7 3 4 1019.8 1019.9 0.0
16/09:00pm 12.2 8.7 3.7 56 3.8 SW 11 15 6 8 1019.7 1019.8 0.0
16/08:30pm 12.6 8.0 3.8 55 4.0 SW 17 24 9 13 1019.7 1019.8 0.0
16/08:00pm 12.2 8.3 3.4 55 3.9 WSW 13 19 7 10 1019.9 1020.0 0.0
16/07:30pm 12.5 7.2 2.9 52 4.2 SW 20 30 11 16 1019.7 1019.8 0.0
16/07:00pm 12.9 7.8 3.0 51 4.4 SW 19 28 10 15 1019.4 1019.5 0.0
16/06:30pm 12.4 8.4 2.8 52 4.2 WSW 13 17 7 9 1019.0 1019.1 0.0
16/06:00pm 13.5 8.1 2.7 48 4.8 WSW 20 28 11 15 1018.4 1018.4 0.0
16/05:30pm 14.3 7.8 2.9 46 5.1 SW 26 35 14 19 1018.2 1018.2 0.0
16/05:00pm 15.3 8.4 2.8 43 5.6 WSW 28 39 15 21 1017.9 1017.9 0.0
16/04:30pm 16.5 9.7 2.9 40 6.2 WSW 28 43 15 23 1017.7 1017.7 0.0
16/04:00pm 17.5 10.6 2.7 37 6.8 SW 28 37 15 20 1017.1 1017.2 0.0
16/03:30pm 18.4 12.2 2.3 34 7.4 WSW 24 37 13 20 1016.4 1016.5 0.0
16/03:00pm 19.1 13.3 2.5 33 7.7 WSW 22 32 12 17 1016.1 1016.2 0.0
16/02:30pm 19.8 13.3 2.6 32 8.0 WSW 26 37 14 20 1016.1 1016.2 0.0
16/02:00pm 20.1 13.1 2.0 30 8.3 WSW 28 35 15 19 1015.9 1016.0 0.0
16/01:30pm 20.2 14.0 2.1 30 8.4 WSW 24 35 13 19 1016.1 1016.2 0.0
16/01:00pm 20.0 13.8 1.9 30 8.3 WSW 24 33 13 18 1016.4 1016.5 0.0
16/12:30pm 19.2 16.7 4.9 39 6.9 W 7 20 4 11 1016.9 1017.0 0.0
16/12:00pm 19.0 16.1 4.7 39 6.9 WNW 9 17 5 9 1017.5 1017.5 0.0
16/11:30am 17.6 15.1 4.6 42 6.2 WSW 7 13 4 7 1018.3 1018.3 0.0
16/11:00am 17.0 14.5 5.0 45 5.7 WSW 7 13 4 7 1018.7 1018.7 0.0
16/10:30am 15.4 13.3 5.9 53 4.6 N 6 9 3 5 1018.9 1019.0 0.0
16/10:00am 13.3 11.2 5.9 61 3.5 N 6 9 3 5 1019.0 1019.1 0.0
16/09:30am 12.4 10.3 5.6 63 3.2 N 6 11 3 6 1019.0 1019.1 0.0
16/09:00am 11.6 10.1 4.8 63 3.1 WNW 2 6 1 3 1018.9 1019.0 0.0
16/08:30am 7.3 5.7 2.6 72 2.0 CALM 0 0 0 0 1018.9 1019.0 0.0
16/08:00am 6.0 3.7 2.8 80 1.3 WNW 4 6 2 3 1018.9 1019.0 0.0
16/07:30am 4.0 1.1 1.5 84 1.0 N 6 7 3 4 1018.6 1018.6 0.0
16/07:00am 3.6 0.9 0.5 80 1.2 N 4 6 2 3 1018.5 1018.5 0.0
16/06:30am 3.6 0.4 0.7 81 1.1 NNW 7 13 4 7 1018.3 1018.3 0.0
16/06:00am 6.0 3.1 1.7 74 1.7 SSE 6 7 3 4 1017.8 1017.8 0.0
16/05:30am 5.7 2.7 1.1 72 1.8 W 6 9 3 5 1017.0 1017.1 0.0
16/05:00am 6.2 2.9 2.3 76 1.6 SW 9 19 5 10 1016.7 1016.8 0.0
16/04:30am 2.8 0.9 0.4 84 0.9 CALM 0 6 0 3 1017.0 1017.1 0.0
16/04:00am 4.9 2.0 1.4 78 1.4 NE 6 9 3 5 1017.0 1017.1 0.0
16/03:30am 5.2 2.2 0.8 73 1.7 NNE 6 7 3 4 1017.1 1017.2 0.0
16/03:00am 6.4 3.9 1.3 70 2.0 WSW 4 6 2 3 1017.3 1017.4 0.0
16/02:30am 8.6 5.9 2.6 66 2.5 WNW 6 9 3 5 1017.6 1017.6 0.0
16/02:00am 6.2 4.4 1.3 71 2.0 CALM 0 0 0 0 1017.9 1017.9 0.0
16/01:30am 6.7 3.6 1.4 69 2.1 NW 7 13 4 7 1018.0 1018.0 0.0
16/01:00am 6.7 4.2 1.4 69 2.1 NW 4 6 2 3 1018.1 1018.1 0.0
16/12:30am 8.6 5.2 2.0 63 2.8 W 9 11 5 6 1018.0 1018.0 0.0
16/12:00am 6.9 2.3 1.4 68 2.2 W 15 20 8 11 1018.2 1018.2 0.0
 
Date/Time
EST
Temp
°C
App
Temp
°C
Dew
Point
°C
Rel
Hum
%
Delta-T
°C
Wind Press
QNH
hPa
Press
MSL
hPa
Rain since
9am
mm
Dir  Spd
km/h
Gust
km/h
Spd
kts
Gust
kts
15/11:30pm 7.3 4.4 1.4 66 2.4 WSW 6 9 3 5 1018.6 1018.6 0.0
15/11:00pm 8.3 5.3 0.5 58 3.1 WNW 6 9 3 5 1018.8 1018.8 0.0
15/10:30pm 8.6 5.1 1.5 61 2.9 NNW 9 13 5 7 1018.9 1019.0 0.0
15/10:00pm 10.0 7.5 1.6 56 3.5 WNW 4 6 2 3 1018.8 1018.8 0.0
15/09:30pm 8.2 4.3 1.1 61 2.9 W 11 13 6 7 1019.1 1019.2 0.0
15/09:00pm 9.4 5.6 1.6 58 3.2 W 11 13 6 7 1019.3 1019.4 0.0
15/08:30pm 9.2 6.1 1.6 59 3.2 W 7 11 4 6 1019.3 1019.4 0.0
15/08:00pm 10.0 7.5 1.6 56 3.5 SW 4 6 2 3 1019.2 1019.3 0.0
15/07:30pm 10.6 7.2 1.9 55 3.7 SW 9 13 5 7 1019.5 1019.6 0.0
15/07:00pm 11.0 6.9 2.1 54 3.8 SW 13 19 7 10 1019.2 1019.3 0.0
15/06:30pm 9.2 5.3 1.4 58 3.2 SSW 11 15 6 8 1018.8 1018.8 0.0
15/06:00pm 10.0 6.4 0.9 53 3.7 WSW 9 11 5 6 1018.6 1018.6 0.0
15/05:30pm 11.0 7.8 0.7 49 4.3 WSW 7 9 4 5 1018.1 1018.1 0.0
15/05:00pm 12.8 8.9 0.9 44 5.0 W 11 13 6 7 1017.6 1017.6 0.0

Other formats

Comma delimited format used in spreadsheet applications
http://www.bom.gov.au/fwo/IDN60801/IDN60801.94752.axf

JavaScript Object Notation format (JSON) in row-major order
http://www.bom.gov.au/fwo/IDN60801/IDN60801.94752.json

Data quality

Most of these data are generated automatically and are frequently updated. Quality checks on data are not normally performed. It is possible for incorrect values to appear. Refer to information at About Latest Weather Observations and please check the disclaimer before using these data.